Time;durP1;ratioP1;P1;durP2;ratioP2;P2;SDS_P1;SDS_P2;PMS_P1;PMS_P2;Temp;Humidity;BMP_temperature;BMP_pressure;BME280_temperature;BME280_humidity;BME280_pressure;Samples;Min_cycle;Max_cycle;Signal;HPM_P1;HPM_P2
2021/11/16 00:01:38;;;;;;;54.08;30.40;;;6.10;99.90;;;;;;4992232;28;20043;-62
2021/11/16 00:04:07;;;;;;;62.53;32.10;;;6.10;99.90;;;;;;4992334;28;20045;-62
2021/11/16 00:06:34;;;;;;;64.82;33.28;;;6.10;99.90;;;;;;4992338;28;20049;-62
2021/11/16 00:09:02;;;;;;;60.97;31.80;;;6.10;99.90;;;;;;4991994;28;20488;-62
2021/11/16 00:11:28;;;;;;;64.30;32.70;;;6.10;99.90;;;;;;4992200;28;20123;-62
2021/11/16 00:13:54;;;;;;;63.90;31.67;;;6.00;99.90;;;;;;4994633;28;20058;-62
2021/11/16 00:16:20;;;;;;;67.03;32.90;;;6.10;99.90;;;;;;4995790;28;20066;-62
2021/11/16 00:18:47;;;;;;;61.20;32.17;;;6.10;99.90;;;;;;4996037;28;20042;-62
2021/11/16 00:21:18;;;;;;;60.42;31.77;;;6.10;99.90;;;;;;4995794;28;20035;-62
2021/11/16 00:23:43;;;;;;;63.67;32.40;;;6.10;99.90;;;;;;4995792;28;20169;-62
2021/11/16 00:26:12;;;;;;;65.20;32.30;;;6.10;99.90;;;;;;4995715;28;20129;-62
2021/11/16 00:28:38;;;;;;;62.20;31.60;;;6.10;99.90;;;;;;4995631;28;20132;-62
2021/11/16 00:31:04;;;;;;;56.35;31.30;;;6.10;99.90;;;;;;4995629;28;20073;-62
2021/11/16 00:33:31;;;;;;;66.45;32.72;;;6.00;99.90;;;;;;5010938;28;20065;-62
2021/11/16 00:35:58;;;;;;;61.67;32.17;;;6.10;99.90;;;;;;4995517;28;20117;-62
2021/11/16 00:38:26;;;;;;;62.25;32.55;;;6.00;99.90;;;;;;4995457;28;20165;-62
2021/11/16 00:40:52;;;;;;;60.38;32.38;;;6.10;99.90;;;;;;4995352;28;20128;-62
2021/11/16 00:43:18;;;;;;;59.05;31.73;;;6.00;99.90;;;;;;4995317;28;20050;-63
2021/11/16 00:45:46;;;;;;;65.97;34.58;;;6.10;99.90;;;;;;4995306;28;20151;-62
2021/11/16 00:48:15;;;;;;;63.70;33.10;;;6.10;99.90;;;;;;4995364;28;20126;-62
2021/11/16 00:50:43;;;;;;;64.97;32.85;;;6.10;99.90;;;;;;4995291;28;20038;-62
2021/11/16 00:53:09;;;;;;;62.25;33.17;;;6.00;99.90;;;;;;4995254;28;20046;-62
2021/11/16 00:55:35;;;;;;;65.15;33.70;;;6.00;99.90;;;;;;4995028;28;20042;-62
2021/11/16 00:58:02;;;;;;;64.22;33.10;;;6.00;99.90;;;;;;4995050;28;20469;-62
2021/11/16 01:00:28;;;;;;;64.22;33.55;;;6.10;99.90;;;;;;4995189;28;20117;-63
2021/11/16 01:02:55;;;;;;;66.53;34.33;;;6.00;99.90;;;;;;4995057;28;20118;-62
2021/11/16 01:05:21;;;;;;;62.50;33.92;;;6.10;99.90;;;;;;4995015;28;20125;-63
2021/11/16 01:07:47;;;;;;;67.05;34.47;;;6.10;99.90;;;;;;4995013;28;20125;-62
2021/11/16 01:10:16;;;;;;;59.53;30.40;;;6.10;99.90;;;;;;4994910;28;20069;-62
2021/11/16 01:12:42;;;;;;;;;;;6.00;99.90;;;;;;4995228;28;20054;-62
2021/11/16 01:15:09;;;;;;;65.53;32.85;;;6.00;99.90;;;;;;4994676;28;20397;-62
2021/11/16 01:17:35;;;;;;;65.22;33.83;;;6.00;99.90;;;;;;4994641;28;20549;-63
2021/11/16 01:20:08;;;;;;;59.75;31.67;;;5.90;99.90;;;;;;4994629;28;20045;-63
2021/11/16 01:22:34;;;;;;;66.15;33.30;;;5.90;99.90;;;;;;4994649;28;20117;-63
2021/11/16 01:25:00;;;;;;;62.28;32.78;;;5.90;99.90;;;;;;4994092;28;20108;-62
2021/11/16 01:27:26;;;;;;;67.60;33.67;;;5.90;99.90;;;;;;4994666;28;20046;-63
2021/11/16 01:29:54;;;;;;;65.95;33.88;;;5.90;99.90;;;;;;4994713;28;20039;-62
2021/11/16 01:32:37;;;;;;;69.18;33.28;;;5.90;99.90;;;;;;4994513;28;20050;-62
2021/11/16 01:35:04;;;;;;;67.03;33.88;;;5.90;99.90;;;;;;4994318;28;20048;-62
2021/11/16 01:37:29;;;;;;;73.50;33.25;;;5.90;99.90;;;;;;4994582;28;20049;-62
2021/11/16 01:39:56;;;;;;;71.88;34.92;;;5.90;99.90;;;;;;4994224;28;20117;-62
2021/11/16 01:42:22;;;;;;;68.22;34.63;;;5.90;99.90;;;;;;4994463;28;20034;-62
2021/11/16 01:44:49;;;;;;;69.15;34.92;;;5.90;99.90;;;;;;4994344;28;20416;-62
2021/11/16 01:47:15;;;;;;;73.15;34.85;;;5.90;99.90;;;;;;4994211;28;20100;-62
2021/11/16 01:49:42;;;;;;;73.88;35.50;;;5.90;99.90;;;;;;4994059;28;20034;-62
2021/11/16 01:52:09;;;;;;;69.15;34.75;;;5.90;99.90;;;;;;4994133;28;20100;-62
2021/11/16 01:54:36;;;;;;;68.10;34.15;;;5.90;99.90;;;;;;4994201;28;20042;-62
2021/11/16 01:57:03;;;;;;;72.30;37.28;;;5.90;99.90;;;;;;5009142;28;20078;-62
2021/11/16 01:59:29;;;;;;;67.35;33.50;;;5.90;99.90;;;;;;4993931;28;20504;-62
2021/11/16 02:01:55;;;;;;;67.97;34.13;;;5.90;99.90;;;;;;4993892;28;20043;-62
2021/11/16 02:04:22;;;;;;;63.90;32.13;;;5.90;99.90;;;;;;4993887;28;20051;-62
2021/11/16 02:06:48;;;;;;;68.55;33.95;;;5.90;99.90;;;;;;4994034;28;20047;-62
2021/11/16 02:09:16;;;;;;;69.70;33.75;;;5.90;99.90;;;;;;4993844;28;20115;-62
2021/11/16 02:11:41;;;;;;;68.25;33.63;;;5.90;99.90;;;;;;4993811;28;20042;-62
2021/11/16 02:14:10;;;;;;;66.07;34.03;;;5.90;99.90;;;;;;4993496;28;20423;-62
2021/11/16 02:16:37;;;;;;;65.88;34.58;;;6.00;99.90;;;;;;4993512;28;20042;-62
2021/11/16 02:19:05;;;;;;;68.32;34.90;;;6.00;99.90;;;;;;4993550;28;20046;-63
2021/11/16 02:21:31;;;;;;;68.73;34.37;;;5.90;99.90;;;;;;4993660;28;20041;-62
2021/11/16 02:23:58;;;;;;;71.13;34.40;;;6.00;99.90;;;;;;4993540;28;20038;-62
2021/11/16 02:26:24;;;;;;;67.18;33.45;;;6.00;99.90;;;;;;4993532;28;20392;-62
2021/11/16 02:28:51;;;;;;;72.57;33.80;;;5.90;99.90;;;;;;4993554;28;20059;-61
2021/11/16 02:31:17;;;;;;;68.15;32.92;;;5.90;99.90;;;;;;4993444;28;20041;-63
2021/11/16 02:33:44;;;;;;;77.68;35.28;;;5.90;99.90;;;;;;4993318;28;20052;-62
2021/11/16 02:36:11;;;;;;;72.40;35.78;;;5.90;99.90;;;;;;4992747;28;20038;-62
2021/11/16 02:38:37;;;;;;;70.85;33.63;;;5.90;99.90;;;;;;4993394;28;20043;-62
2021/11/16 02:41:05;;;;;;;69.68;33.30;;;5.90;99.90;;;;;;4993201;28;20077;-62
2021/11/16 02:43:33;;;;;;;63.53;31.73;;;5.90;99.90;;;;;;4993157;28;20038;-62
2021/11/16 02:46:01;;;;;;;67.30;33.40;;;5.90;99.90;;;;;;4993029;28;20050;-62
2021/11/16 02:48:27;;;;;;;69.80;35.83;;;5.90;99.90;;;;;;4993373;28;20045;-62
2021/11/16 02:51:00;;;;;;;64.32;33.38;;;6.00;99.90;;;;;;4992924;28;20511;-62
2021/11/16 02:53:26;;;;;;;65.85;34.30;;;6.00;99.90;;;;;;4993139;28;20038;-62
2021/11/16 02:55:52;;;;;;;68.07;33.92;;;5.90;99.90;;;;;;4992925;28;20038;-62
2021/11/16 02:58:20;;;;;;;66.85;32.70;;;5.90;99.90;;;;;;4992971;28;20084;-62
2021/11/16 03:00:51;;;;;;;70.55;32.80;;;5.90;99.90;;;;;;4992914;28;20143;-62
2021/11/16 03:03:18;;;;;;;70.68;35.25;;;5.90;99.90;;;;;;4992766;28;20476;-62
2021/11/16 03:05:44;;;;;;;67.95;33.13;;;5.90;99.90;;;;;;4992886;28;20053;-62
2021/11/16 03:08:29;;;;;;;65.88;33.75;;;5.90;99.90;;;;;;4992931;28;20046;-62
2021/11/16 03:10:58;;;;;;;71.35;33.00;;;5.90;99.90;;;;;;4992769;28;20046;-62
2021/11/16 03:13:26;;;;;;;78.07;36.65;;;5.90;99.90;;;;;;4992736;28;20377;-62
2021/11/16 03:15:52;;;;;;;67.00;33.28;;;5.90;99.90;;;;;;4992608;28;20472;-62
2021/11/16 03:18:18;;;;;;;69.18;35.22;;;5.90;99.90;;;;;;4992793;28;20046;-62
2021/11/16 03:20:45;;;;;;;68.63;37.33;;;5.90;99.90;;;;;;4992713;28;20037;-62
2021/11/16 03:23:23;;;;;;;68.45;33.97;;;5.90;99.90;;;;;;4992511;28;20496;-62
2021/11/16 03:25:56;;;;;;;71.93;33.75;;;5.90;99.90;;;;;;4992706;28;20054;-62
2021/11/16 03:28:24;;;;;;;74.05;34.33;;;5.90;99.90;;;;;;4992683;28;20050;-62
2021/11/16 03:30:53;;;;;;;69.28;34.10;;;5.90;99.90;;;;;;4992474;28;20043;-62
2021/11/16 03:33:20;;;;;;;71.37;33.73;;;5.90;99.90;;;;;;4992632;28;20046;-61
2021/11/16 03:35:46;;;;;;;69.85;35.08;;;5.90;99.90;;;;;;4992318;28;20104;-62
2021/11/16 03:38:14;;;;;;;74.57;34.90;;;5.90;99.90;;;;;;4992404;28;20038;-62
2021/11/16 03:40:40;;;;;;;80.32;37.75;;;5.90;99.90;;;;;;4992445;28;20043;-62
2021/11/16 03:43:10;;;;;;;71.00;35.20;;;5.90;99.90;;;;;;4992506;28;20064;-62
2021/11/16 03:45:37;;;;;;;72.53;35.47;;;5.90;99.90;;;;;;4992559;28;20069;-62
2021/11/16 03:48:03;;;;;;;77.15;36.65;;;5.90;99.90;;;;;;4995507;28;20121;-62
2021/11/16 03:50:31;;;;;;;68.07;33.95;;;5.90;99.90;;;;;;4996111;28;20496;-62
2021/11/16 03:52:58;;;;;;;69.85;34.25;;;5.90;99.90;;;;;;4996565;28;20064;-62
2021/11/16 03:55:29;;;;;;;73.80;33.95;;;6.00;99.90;;;;;;4996317;28;20035;-62
2021/11/16 03:57:56;;;;;;;74.15;34.22;;;6.00;99.90;;;;;;4996239;28;20042;-62
2021/11/16 04:00:35;;;;;;;73.15;34.25;;;5.90;99.90;;;;;;4996159;28;20540;-62
2021/11/16 04:03:02;;;;;;;73.18;34.72;;;5.90;99.90;;;;;;4996060;28;20050;-62
2021/11/16 04:05:28;;;;;;;73.90;34.33;;;5.90;99.90;;;;;;4996154;28;20080;-62
2021/11/16 04:07:54;;;;;;;70.90;33.05;;;5.90;99.90;;;;;;4996293;28;20049;-62
2021/11/16 04:10:22;;;;;;;72.47;34.10;;;5.90;99.90;;;;;;4996075;28;20126;-62
2021/11/16 04:12:49;;;;;;;70.07;32.70;;;6.00;99.90;;;;;;4996094;28;20038;-62
2021/11/16 04:15:16;;;;;;;68.00;33.00;;;6.00;99.90;;;;;;4995478;28;20488;-63
2021/11/16 04:17:43;;;;;;;69.35;33.72;;;6.00;99.90;;;;;;4995881;28;20042;-62
2021/11/16 04:20:16;;;;;;;69.63;33.38;;;5.90;99.90;;;;;;4995751;28;20558;-62
2021/11/16 04:22:44;;;;;;;64.65;31.15;;;5.90;99.90;;;;;;4995792;28;20035;-62
2021/11/16 04:25:12;;;;;;;68.57;31.88;;;6.00;99.90;;;;;;4995888;28;20092;-62
2021/11/16 04:27:39;;;;;;;74.72;32.55;;;6.00;99.90;;;;;;4995781;28;20443;-62
2021/11/16 04:30:07;;;;;;;70.72;33.50;;;6.00;99.90;;;;;;4995598;28;20042;-61
2021/11/16 04:32:33;;;;;;;77.15;33.80;;;6.00;99.90;;;;;;4995332;28;20456;-61
2021/11/16 04:34:59;;;;;;;75.22;33.53;;;6.00;99.90;;;;;;4995387;28;20121;-62
2021/11/16 04:37:25;;;;;;;75.00;34.60;;;6.10;99.90;;;;;;4995166;28;20121;-62
2021/11/16 04:39:51;;;;;;;74.03;32.80;;;5.90;99.90;;;;;;4995363;28;20062;-62
2021/11/16 04:42:17;;;;;;;78.88;35.40;;;6.00;99.90;;;;;;4995278;28;20441;-62
2021/11/16 04:44:44;;;;;;;76.97;33.97;;;5.90;99.90;;;;;;4995016;28;20085;-62
2021/11/16 04:47:11;;;;;;;73.90;33.47;;;5.90;99.90;;;;;;4995309;28;20125;-62
2021/11/16 04:49:44;;;;;;;70.63;31.95;;;6.00;99.90;;;;;;4995302;28;20408;-62
2021/11/16 04:52:24;;;;;;;69.05;32.78;;;5.90;99.90;;;;;;4995081;28;20057;-62
2021/11/16 05:02:43;;;;;;;67.85;31.10;;;6.00;99.90;;;;;;4993823;28;20064;-62
2021/11/16 05:05:13;;;;;;;73.57;32.97;;;6.00;99.90;;;;;;4994698;28;20539;-62
2021/11/16 05:07:46;;;;;;;65.78;31.10;;;5.90;99.90;;;;;;4995049;28;20545;-62
2021/11/16 05:10:11;;;;;;;72.38;32.03;;;5.90;99.90;;;;;;4994834;28;20074;-62
2021/11/16 05:12:37;;;;;;;75.15;33.08;;;5.90;99.90;;;;;;4994879;28;20073;-62
2021/11/16 05:15:09;;;;;;;69.00;32.55;;;5.90;99.90;;;;;;4994393;28;20057;-62
2021/11/16 05:17:34;;;;;;;74.32;32.10;;;6.00;99.90;;;;;;4994604;28;20050;-62
2021/11/16 05:20:01;;;;;;;69.22;32.05;;;6.00;99.90;;;;;;4994601;28;20109;-62
2021/11/16 05:22:26;;;;;;;67.93;31.38;;;6.00;99.90;;;;;;4994316;28;20042;-62
2021/11/16 05:24:52;;;;;;;64.97;31.50;;;5.90;99.90;;;;;;4994586;28;20503;-62
2021/11/16 05:27:18;;;;;;;66.38;29.23;;;6.00;99.90;;;;;;4994494;28;20042;-62
2021/11/16 05:29:44;;;;;;;74.28;32.47;;;5.90;99.90;;;;;;4994447;28;20042;-62
2021/11/16 05:32:10;;;;;;;69.57;31.98;;;5.90;99.90;;;;;;4994528;28;20101;-62
2021/11/16 05:34:36;;;;;;;71.93;31.77;;;5.90;99.90;;;;;;4994389;28;20552;-62
2021/11/16 05:37:02;;;;;;;70.97;33.25;;;5.90;99.90;;;;;;4994266;28;20045;-62
2021/11/16 05:39:27;;;;;;;76.40;31.88;;;5.90;99.90;;;;;;4994119;28;20045;-62
2021/11/16 05:41:53;;;;;;;72.35;32.63;;;6.00;99.90;;;;;;4994249;28;20041;-62
2021/11/16 05:44:19;;;;;;;76.30;32.67;;;5.90;99.90;;;;;;4994087;28;20135;-62
2021/11/16 05:46:45;;;;;;;76.00;33.63;;;5.90;99.90;;;;;;4994025;28;20592;-62
2021/11/16 05:49:11;;;;;;;72.88;34.08;;;5.90;99.90;;;;;;4993977;28;20374;-62
2021/11/16 05:51:36;;;;;;;75.97;33.28;;;5.80;99.90;;;;;;4993918;28;20065;-62
2021/11/16 05:54:03;;;;;;;78.43;34.75;;;5.90;99.90;;;;;;4993940;28;20493;-62
2021/11/16 05:56:32;;;;;;;76.72;33.13;;;5.90;99.90;;;;;;4994027;28;20083;-62
2021/11/16 05:58:58;;;;;;;73.35;33.15;;;5.90;99.90;;;;;;4993791;28;20041;-62
2021/11/16 06:01:30;;;;;;;74.90;34.17;;;5.90;99.90;;;;;;4993861;28;20035;-62
2021/11/16 06:03:57;;;;;;;73.32;32.92;;;5.80;99.90;;;;;;4993636;28;20118;-62
2021/11/16 06:06:24;;;;;;;77.88;33.22;;;5.90;99.90;;;;;;4993903;28;20392;-62
2021/11/16 06:08:52;;;;;;;76.28;33.83;;;5.90;99.90;;;;;;4992579;28;20038;-62
2021/11/16 06:11:20;;;;;;;81.57;34.65;;;5.90;99.90;;;;;;5008737;28;20449;-62
2021/11/16 06:13:47;;;;;;;77.55;32.97;;;5.90;99.90;;;;;;4993654;28;20042;-62
2021/11/16 06:16:12;;;;;;;73.90;34.00;;;5.80;99.90;;;;;;5008461;28;20523;-62
2021/11/16 06:18:39;;;;;;;76.78;34.70;;;5.80;99.90;;;;;;4993396;28;20122;-62
2021/11/16 06:21:04;;;;;;;77.38;35.70;;;5.90;99.90;;;;;;4993512;28;20034;-62
2021/11/16 06:23:31;;;;;;;76.93;33.50;;;5.90;99.90;;;;;;4993439;28;20395;-62
2021/11/16 06:25:56;;;;;;;79.07;34.53;;;5.80;99.90;;;;;;4993401;28;20049;-62
2021/11/16 06:28:22;;;;;;;75.78;32.58;;;5.80;99.90;;;;;;4993297;28;20046;-62
2021/11/16 06:30:48;;;;;;;70.53;32.97;;;5.80;99.90;;;;;;4993238;28;20084;-62
2021/11/16 06:33:23;;;;;;;76.60;33.38;;;5.80;99.90;;;;;;4993035;28;20068;-62
2021/11/16 06:35:49;;;;;;;78.63;34.70;;;5.80;99.90;;;;;;4993156;28;20044;-62
2021/11/16 06:38:15;;;;;;;75.65;33.65;;;5.90;99.90;;;;;;4993212;28;20038;-62
2021/11/16 06:40:47;;;;;;;76.25;34.92;;;6.00;99.90;;;;;;4993075;28;20395;-62
2021/11/16 06:43:22;;;;;;;68.07;31.60;;;6.00;99.90;;;;;;4993045;28;20492;-62
2021/11/16 06:45:56;;;;;;;78.80;33.45;;;6.00;99.90;;;;;;4992884;28;20496;-62
2021/11/16 06:48:22;;;;;;;69.35;31.58;;;6.00;99.90;;;;;;4993001;28;20403;-62
2021/11/16 06:50:49;;;;;;;70.75;31.08;;;6.00;99.90;;;;;;4992927;28;20042;-62
2021/11/16 06:53:26;;;;;;;72.78;32.42;;;6.00;99.90;;;;;;4992900;28;20432;-62
2021/11/16 06:55:52;;;;;;;75.05;33.97;;;6.00;99.90;;;;;;4992780;28;20052;-62
2021/11/16 06:58:18;;;;;;;78.70;33.22;;;5.90;99.90;;;;;;4992731;28;20038;-62
2021/11/16 07:00:44;;;;;;;75.63;32.80;;;5.90;99.90;;;;;;4992774;28;20045;-62
2021/11/16 07:03:19;;;;;;;69.97;32.33;;;5.80;99.90;;;;;;4992982;28;20117;-62
2021/11/16 07:05:56;;;;;;;79.47;32.80;;;5.80;99.90;;;;;;4992722;28;20053;-62
2021/11/16 07:08:28;;;;;;;71.97;33.15;;;5.70;99.90;;;;;;4992626;28;20436;-62
2021/11/16 07:11:05;;;;;;;77.15;33.95;;;5.70;99.90;;;;;;4992735;28;20042;-61
2021/11/16 07:13:31;;;;;;;79.38;33.00;;;5.70;99.90;;;;;;4992502;28;20038;-62
2021/11/16 07:15:57;;;;;;;86.18;34.47;;;5.70;99.90;;;;;;4992203;28;20046;-62
2021/11/16 07:18:24;;;;;;;83.40;33.90;;;5.70;99.90;;;;;;4992619;28;20097;-62
2021/11/16 07:20:58;;;;;;;82.32;34.67;;;5.70;99.90;;;;;;4992446;28;20389;-62
2021/11/16 07:23:23;;;;;;;82.30;33.95;;;5.70;99.90;;;;;;4992176;28;20049;-62
2021/11/16 07:25:49;;;;;;;75.68;33.33;;;5.80;99.90;;;;;;4992555;28;20042;-62
2021/11/16 07:28:15;;;;;;;78.30;32.90;;;5.80;99.90;;;;;;4992555;28;20046;-62
2021/11/16 07:30:41;;;;;;;86.65;34.65;;;5.80;99.90;;;;;;4992403;28;20049;-62
2021/11/16 07:33:10;;;;;;;80.57;32.40;;;5.80;99.90;;;;;;5007682;28;20578;-61
2021/11/16 07:35:37;;;;;;;;;;;5.80;99.90;;;;;;4992445;28;20047;-61
2021/11/16 07:38:09;;;;;;;74.78;32.00;;;5.80;99.90;;;;;;4991369;28;19917;-61
2021/11/16 07:40:36;;;;;;;83.40;33.03;;;5.80;99.90;;;;;;4992784;28;20035;-61
2021/11/16 07:43:10;;;;;;;84.43;34.85;;;5.80;99.90;;;;;;4991065;28;20042;-61
2021/11/16 07:45:42;;;;;;;79.88;34.33;;;5.80;99.90;;;;;;5006409;28;20046;-61
2021/11/16 07:48:10;;;;;;;82.50;35.67;;;5.90;99.90;;;;;;4992011;28;20554;-61
2021/11/16 07:51:06;;;;;;;88.53;34.80;;;5.90;99.90;;;;;;4992109;28;20046;-61
2021/11/16 07:53:36;;;;;;;80.22;33.33;;;5.90;99.90;;;;;;4992449;28;20567;-61
2021/11/16 07:56:18;;;;;;;77.00;31.65;;;5.80;99.90;;;;;;4992155;28;20465;-61
2021/11/16 07:58:51;;;;;;;83.75;35.67;;;5.80;99.90;;;;;;4992131;28;20100;-61
2021/11/16 08:01:23;;;;;;;82.97;34.95;;;5.80;99.90;;;;;;4992133;28;20038;-61
2021/11/16 08:03:51;;;;;;;79.25;34.75;;;5.80;99.90;;;;;;4992210;28;20034;-62
2021/11/16 08:06:27;;;;;;;82.03;35.00;;;5.80;99.90;;;;;;4990782;28;20046;-61
2021/11/16 08:09:07;;;;;;;84.05;35.40;;;5.80;99.90;;;;;;4991976;28;20273;-61
2021/11/16 08:11:39;;;;;;;77.25;32.90;;;5.80;99.90;;;;;;4992218;28;20042;-61
2021/11/16 08:14:14;;;;;;;81.93;34.40;;;5.80;99.90;;;;;;4991767;28;20058;-61
2021/11/16 08:17:00;;;;;;;81.25;33.47;;;5.80;99.90;;;;;;4992254;28;20142;-61
2021/11/16 08:19:31;;;;;;;82.95;34.20;;;5.80;99.90;;;;;;4991912;28;20085;-62
2021/11/16 08:22:09;;;;;;;74.55;32.10;;;5.80;99.90;;;;;;4990711;28;20047;-62
2021/11/16 08:24:38;;;;;;;76.15;31.65;;;5.70;99.90;;;;;;4992036;28;20048;-61
2021/11/16 08:27:17;;;;;;;93.05;34.38;;;5.70;99.90;;;;;;4992003;28;20050;-61
2021/11/16 08:29:46;;;;;;;86.95;35.30;;;5.70;99.90;;;;;;4991738;28;20057;-61
2021/11/16 08:32:23;;;;;;;93.05;35.05;;;5.70;99.90;;;;;;4991983;28;20046;-61
2021/11/16 08:34:55;;;;;;;90.60;35.38;;;5.70;99.90;;;;;;4992862;28;20125;-62
2021/11/16 08:37:25;;;;;;;78.93;33.70;;;5.70;99.90;;;;;;4995407;28;20042;-62
2021/11/16 08:39:58;;;;;;;82.07;33.42;;;5.70;99.90;;;;;;4995224;28;20480;-62
2021/11/16 08:42:28;;;;;;;83.68;33.65;;;5.60;99.90;;;;;;4995106;28;20042;-62
2021/11/16 08:45:04;;;;;;;81.43;33.92;;;5.70;99.90;;;;;;4995398;28;20041;-63
2021/11/16 08:47:36;;;;;;;84.68;34.53;;;5.70;99.90;;;;;;4995300;28;20050;-62
2021/11/16 08:50:13;;;;;;;88.65;34.45;;;5.70;99.90;;;;;;4995146;28;20077;-60
2021/11/16 08:52:39;;;;;;;82.60;32.13;;;5.60;99.90;;;;;;4995050;28;20057;-60
2021/11/16 08:55:09;;;;;;;79.72;32.42;;;5.60;99.90;;;;;;4994962;28;20043;-61
2021/11/16 08:57:36;;;;;;;78.53;31.55;;;5.70;99.90;;;;;;4995318;28;20099;-61
2021/11/16 09:00:33;;;;;;;82.75;34.90;;;5.70;99.90;;;;;;4995153;28;20034;-61
2021/11/16 09:03:08;;;;;;;81.80;33.90;;;5.70;99.90;;;;;;4994879;28;20038;-61
2021/11/16 09:05:43;;;;;;;86.13;35.15;;;5.60;99.90;;;;;;4994695;28;20480;-61
2021/11/16 09:08:14;;;;;;;80.18;33.03;;;5.60;99.90;;;;;;4994689;28;20048;-61
2021/11/16 09:10:43;;;;;;;80.40;33.85;;;5.70;99.90;;;;;;4994661;28;20496;-60
2021/11/16 09:13:11;;;;;;;88.10;35.20;;;5.60;99.90;;;;;;4994801;28;20384;-61
2021/11/16 09:15:43;;;;;;;76.22;32.40;;;5.60;99.90;;;;;;4994226;28;20054;-59
2021/11/16 09:18:12;;;;;;;79.38;33.72;;;5.60;99.90;;;;;;4994803;28;20129;-59
2021/11/16 09:20:39;;;;;;;81.93;34.55;;;5.70;99.90;;;;;;4994470;28;20042;-59
2021/11/16 09:23:05;;;;;;;82.95;32.15;;;5.70;99.90;;;;;;4994800;28;20042;-59
2021/11/16 09:25:37;;;;;;;71.53;32.30;;;5.70;99.90;;;;;;4994493;28;20046;-59
2021/11/16 09:28:39;;;;;;;74.07;30.92;;;5.80;99.90;;;;;;4994686;28;20153;-59
2021/11/16 09:31:20;;;;;;;82.38;31.23;;;5.70;99.90;;;;;;4994457;28;20053;-59
2021/11/16 09:33:46;;;;;;;82.47;33.20;;;5.60;99.90;;;;;;4994352;28;20042;-59
2021/11/16 09:36:20;;;;;;;78.70;31.83;;;5.60;99.90;;;;;;4994135;28;20046;-59
2021/11/16 09:38:49;;;;;;;84.07;33.35;;;5.70;99.90;;;;;;4994199;28;20058;-59
2021/11/16 09:41:37;;;;;;;80.47;33.42;;;5.70;99.90;;;;;;5009472;28;20450;-59
2021/11/16 09:44:11;;;;;;;78.13;31.83;;;5.70;99.90;;;;;;4994027;28;20031;-59
2021/11/16 09:47:24;;;;;;;72.05;31.58;;;5.60;99.90;;;;;;4994302;28;20046;-59
2021/11/16 09:49:59;;;;;;;86.22;32.60;;;5.60;99.90;;;;;;5011467;28;20049;-59
2021/11/16 09:52:45;;;;;;;78.28;32.20;;;5.60;99.90;;;;;;5011377;28;20046;-59
2021/11/16 09:55:28;;;;;;;78.57;32.72;;;5.60;99.90;;;;;;5011239;28;20053;-59
2021/11/16 09:58:02;;;;;;;80.65;31.60;;;5.70;99.90;;;;;;5011104;28;20053;-59
2021/11/16 10:00:40;;;;;;;81.85;31.63;;;5.70;99.90;;;;;;5011275;28;20089;-59
2021/11/16 10:03:08;;;;;;;80.55;31.85;;;5.70;99.90;;;;;;5011256;28;20077;-59
2021/11/16 10:05:58;;;;;;;72.47;30.13;;;5.80;99.90;;;;;;5011070;28;20061;-59
2021/11/16 10:08:25;;;;;;;79.43;30.17;;;5.70;99.90;;;;;;5011019;28;20049;-60
2021/11/16 10:10:53;;;;;;;74.30;31.00;;;5.70;99.90;;;;;;5011059;28;20084;-59
2021/11/16 10:13:23;;;;;;;69.95;28.85;;;5.70;99.90;;;;;;5010840;28;20061;-59
2021/11/16 10:15:52;;;;;;;73.72;29.98;;;5.60;99.90;;;;;;5010774;28;20058;-59
2021/11/16 10:18:19;;;;;;;66.38;28.42;;;5.60;99.90;;;;;;5010757;28;20053;-59
2021/11/16 10:20:47;;;;;;;69.70;28.50;;;5.60;99.90;;;;;;5010763;28;20077;-59
2021/11/16 10:23:16;;;;;;;63.83;27.80;;;5.70;99.90;;;;;;5010826;28;20061;-59
2021/11/16 10:25:53;;;;;;;65.05;27.42;;;5.70;99.90;;;;;;5003373;28;20054;-59
2021/11/16 10:28:19;;;;;;;63.88;26.70;;;5.60;99.90;;;;;;4993259;28;20034;-59
2021/11/16 10:30:45;;;;;;;66.47;26.88;;;5.70;99.90;;;;;;4993146;28;20495;-59
2021/11/16 10:33:11;;;;;;;70.60;26.52;;;5.60;99.90;;;;;;4993356;28;20391;-59
2021/11/16 10:36:02;;;;;;;62.60;26.75;;;5.60;99.90;;;;;;4993422;28;20042;-59
2021/11/16 10:38:50;;;;;;;58.83;26.00;;;5.60;99.90;;;;;;4993011;28;20054;-59
2021/11/16 10:41:19;;;;;;;64.35;25.90;;;5.60;99.90;;;;;;5008134;28;20081;-59
2021/11/16 10:44:06;;;;;;;;;;;5.60;99.90;;;;;;4993317;28;20114;-59
2021/11/16 10:46:35;;;;;;;54.20;22.92;;;5.70;99.90;;;;;;4992889;28;20414;-59
2021/11/16 10:49:09;;;;;;;53.40;22.20;;;5.70;99.90;;;;;;4993004;28;20051;-59
2021/11/16 10:51:36;;;;;;;50.33;22.45;;;5.70;99.90;;;;;;4992816;28;20496;-59
2021/11/16 10:54:03;;;;;;;56.33;23.38;;;5.70;99.90;;;;;;4992876;28;20046;-59
2021/11/16 10:56:32;;;;;;;60.72;24.58;;;5.70;99.90;;;;;;4992169;28;20082;-59
2021/11/16 10:59:05;;;;;;;;;;;5.70;99.90;;;;;;4993204;28;20592;-59
2021/11/16 11:01:30;;;;;;;51.85;23.73;;;5.70;99.90;;;;;;4992885;28;19968;-59
2021/11/16 11:03:57;;;;;;;61.10;24.58;;;5.70;99.90;;;;;;4992724;28;20034;-59
2021/11/16 11:06:23;;;;;;;61.00;24.48;;;5.70;99.90;;;;;;4992768;28;20053;-58
2021/11/16 11:09:03;;;;;;;62.35;25.60;;;5.70;99.90;;;;;;4992673;28;20050;-59
2021/11/16 11:11:38;;;;;;;56.65;25.73;;;5.70;99.90;;;;;;4992574;28;20194;-59
2021/11/16 11:14:12;;;;;;;57.40;25.75;;;5.70;99.90;;;;;;4992666;28;20052;-59
2021/11/16 11:16:49;;;;;;;62.25;26.48;;;5.70;99.90;;;;;;4992401;28;20141;-59
2021/11/16 11:19:31;;;;;;;66.60;27.35;;;5.70;99.90;;;;;;4992659;28;20046;-59
2021/11/16 11:22:18;;;;;;;64.50;26.88;;;5.80;99.90;;;;;;4992548;28;20045;-60
2021/11/16 11:25:34;;;;;;;71.85;27.40;;;5.70;99.90;;;;;;4992258;28;20049;-59
2021/11/16 11:27:57;;;;;;;70.32;27.52;;;5.60;99.90;;;;;;4992600;28;20523;-59
2021/11/16 11:30:24;;;;;;;67.43;27.80;;;5.70;99.90;;;;;;4992389;28;20085;-59
2021/11/16 11:32:52;;;;;;;70.03;29.27;;;5.70;99.90;;;;;;4992398;28;20121;-59
2021/11/16 11:35:23;;;;;;;69.72;28.80;;;5.70;99.90;;;;;;4992160;28;20038;-59
2021/11/16 11:37:58;;;;;;;67.25;26.80;;;5.80;99.90;;;;;;4991898;28;20618;-59
2021/11/16 11:40:37;;;;;;;69.88;27.77;;;5.70;99.90;;;;;;4992428;28;20089;-59
2021/11/16 11:43:24;;;;;;;64.28;26.67;;;5.80;99.90;;;;;;4992402;28;20077;-59
2021/11/16 11:45:50;;;;;;;60.83;26.27;;;5.80;99.90;;;;;;4992336;28;20112;-59
2021/11/16 11:48:22;;;;;;;66.55;27.02;;;5.80;99.90;;;;;;4992636;28;20452;-59
2021/11/16 11:50:53;;;;;;;59.15;24.25;;;5.80;99.90;;;;;;4992504;28;20085;-59
2021/11/16 11:53:20;;;;;;;62.22;25.42;;;5.80;99.90;;;;;;4992446;28;20488;-59
2021/11/16 11:55:53;;;;;;;55.75;24.30;;;5.80;99.90;;;;;;4991971;28;20054;-60
2021/11/16 11:58:23;;;;;;;58.85;24.95;;;5.80;99.90;;;;;;4992309;28;20142;-59
2021/11/16 12:00:51;;;;;;;49.08;21.45;;;5.80;99.90;;;;;;4992498;28;20125;-59
2021/11/16 12:03:19;;;;;;;47.75;21.85;;;5.80;99.90;;;;;;4992111;28;20039;-59
2021/11/16 12:05:45;;;;;;;49.60;21.17;;;5.70;99.90;;;;;;4991435;28;20370;-59
2021/11/16 12:08:13;;;;;;;51.47;23.58;;;5.70;99.90;;;;;;4993636;28;20130;-59
2021/11/16 12:10:41;;;;;;;54.45;23.70;;;5.70;99.90;;;;;;4996175;28;20438;-59
2021/11/16 12:13:08;;;;;;;50.80;22.38;;;5.80;99.90;;;;;;4996237;28;20042;-60
2021/11/16 12:15:58;;;;;;;49.30;20.92;;;5.70;99.90;;;;;;4995610;28;20069;-59
2021/11/16 12:18:37;;;;;;;55.97;22.55;;;5.70;99.90;;;;;;4995717;28;20076;-60
2021/11/16 12:21:03;;;;;;;53.13;22.48;;;5.70;99.90;;;;;;4995759;28;20079;-59
2021/11/16 12:23:46;;;;;;;53.65;22.92;;;5.80;99.90;;;;;;4994622;28;20096;-60
2021/11/16 12:26:14;;;;;;;54.83;22.02;;;5.70;99.90;;;;;;4993963;28;20895;-59
2021/11/16 12:28:41;;;;;;;58.97;24.50;;;5.80;99.90;;;;;;4996000;28;20042;-59
2021/11/16 12:31:08;;;;;;;56.13;23.90;;;5.80;99.90;;;;;;4996038;28;20791;-59
2021/11/16 12:33:38;;;;;;;53.80;24.83;;;5.80;99.90;;;;;;4995818;28;20120;-59
2021/11/16 12:36:04;;;;;;;56.28;22.80;;;5.70;99.90;;;;;;4995337;28;20508;-59
2021/11/16 12:38:42;;;;;;;61.45;24.98;;;5.70;99.90;;;;;;4995546;28;20117;-59
2021/11/16 12:41:26;;;;;;;57.65;23.48;;;5.70;99.90;;;;;;4995605;28;20042;-59
2021/11/16 12:43:52;;;;;;;59.20;23.42;;;5.70;99.90;;;;;;5010147;28;20092;-59
2021/11/16 12:46:19;;;;;;;51.17;21.25;;;5.60;99.90;;;;;;4995365;28;20048;-59
2021/11/16 12:48:49;;;;;;;55.17;21.10;;;5.70;99.90;;;;;;4995508;28;20050;-59
2021/11/16 12:51:20;;;;;;;49.13;21.00;;;5.70;99.90;;;;;;4995480;28;20092;-59
2021/11/16 12:53:53;;;;;;;50.70;22.02;;;5.60;99.90;;;;;;4995358;28;20045;-59
2021/11/16 12:56:24;;;;;;;47.10;21.80;;;5.70;99.90;;;;;;4995318;28;20052;-60
2021/11/16 12:58:53;;;;;;;48.75;22.15;;;5.70;99.90;;;;;;4995298;28;20078;-59
2021/11/16 13:01:35;;;;;;;58.35;23.35;;;5.60;99.90;;;;;;4995032;28;20038;-59